Time;durP1;ratioP1;P1;durP2;ratioP2;P2;SDS_P1;SDS_P2;PMS_P1;PMS_P2;Temp;Humidity;BMP_temperature;BMP_pressure;BME280_temperature;BME280_humidity;BME280_pressure;Samples;Min_cycle;Max_cycle;Signal;HPM_P1;HPM_P2
2023/03/10 00:01:23;;;;;;;;;;;;;;;14.62;40.58;98386.03;4437723;32;33607;-64
2023/03/10 00:03:51;;;;;;;;;;;;;;;14.55;40.62;98382.38;4447993;32;32774;-63
2023/03/10 00:06:19;;;;;;;;;;;;;;;14.36;41.08;98386.25;4444358;32;35123;-62
2023/03/10 00:08:46;;;;;;;;;;;;;;;14.46;40.90;98378.00;4439379;32;32790;-64
2023/03/10 00:11:14;;;;;;;;;;;;;;;14.40;41.16;98379.50;4445165;32;32145;-67
2023/03/10 00:13:41;;;;;;;;;;;;;;;14.48;40.86;98370.59;4444139;32;34201;-64
2023/03/10 00:16:10;;;;;;;;;;;;;;;14.48;40.76;98384.06;4450671;32;34128;-64
2023/03/10 00:18:37;;;;;;;;;;;;;;;14.36;41.16;98378.19;4442100;32;34462;-62
2023/03/10 00:21:04;;;;;;;;;;;;;;;14.35;41.33;98389.09;4439457;32;34191;-62
2023/03/10 00:23:32;;;;;;;;;;;;;;;14.25;41.41;98381.22;4439376;32;33792;-63
2023/03/10 00:26:02;;;;;;;;;;;;;;;14.26;41.37;98388.31;4441627;32;33832;-63
2023/03/10 00:28:29;;;;;;;;;;;;;;;14.18;41.61;98382.91;4438312;32;34996;-63
2023/03/10 00:31:00;;;;;;;;;;;;;;;14.20;41.59;98381.75;4437192;32;33649;-63
2023/03/10 00:33:29;;;;;;;;;;;;;;;14.19;41.38;98381.94;4437298;32;34003;-64
2023/03/10 00:36:03;;;;;;;;;;;;;;;14.03;41.79;98373.84;4449602;32;33468;-63
2023/03/10 00:38:31;;;;;;;;;;;;;;;13.72;42.35;98367.34;4443008;32;33004;-63
2023/03/10 00:40:59;;;;;;;;;;;;;;;13.69;42.45;98370.34;4439229;32;33257;-63
2023/03/10 00:43:27;;;;;;;;;;;;;;;13.67;42.39;98366.97;4437205;32;34805;-64
2023/03/10 00:45:54;;;;;;;;;;;;;;;13.51;42.56;98366.97;4453363;32;34755;-65
2023/03/10 00:48:22;;;;;;;;;;;;;;;13.24;43.15;98362.72;4440847;32;34082;-63
2023/03/10 00:50:49;;;;;;;;;;;;;;;12.98;43.54;98362.84;4442874;32;31866;-64
2023/03/10 00:53:16;;;;;;;;;;;;;;;12.45;45.11;98358.59;4437245;32;32947;-63
2023/03/10 00:55:44;;;;;;;;;;;;;;;12.48;45.08;98358.28;4437408;32;34194;-66
2023/03/10 00:58:11;;;;;;;;;;;;;;;12.66;45.04;98359.03;4435585;32;35182;-65
2023/03/10 01:00:39;;;;;;;;;;;;;;;12.88;44.23;98354.09;4443983;32;33737;-65
2023/03/10 01:03:06;;;;;;;;;;;;;;;13.09;43.20;98351.78;4447030;32;34673;-64
2023/03/10 01:05:33;;;;;;;;;;;;;;;13.12;43.21;98346.06;4442047;32;34151;-64
2023/03/10 01:08:01;;;;;;;;;;;;;;;13.30;42.66;98345.13;4443548;32;34218;-63
2023/03/10 01:10:28;;;;;;;;;;;;;;;13.04;42.96;98338.00;4445472;32;32132;-64
2023/03/10 01:12:56;;;;;;;;;;;;;;;12.66;43.90;98340.25;4447859;32;34304;-63
2023/03/10 01:15:25;;;;;;;;;;;;;;;12.80;43.60;98336.91;4443671;32;35984;-65
2023/03/10 01:17:52;;;;;;;;;;;;;;;12.85;43.89;98331.06;4439960;32;35174;-64
2023/03/10 01:20:20;;;;;;;;;;;;;;;12.92;43.17;98331.25;4443491;32;31910;-62
2023/03/10 01:22:47;;;;;;;;;;;;;;;12.89;42.62;98327.06;4445858;32;34795;-63
2023/03/10 01:25:15;;;;;;;;;;;;;;;12.85;42.83;98324.87;4447138;32;35512;-63
2023/03/10 01:27:42;;;;;;;;;;;;;;;12.82;42.45;98326.88;4444858;32;34675;-65
2023/03/10 01:30:10;;;;;;;;;;;;;;;12.75;42.45;98323.16;4437375;32;33366;-64
2023/03/10 01:32:37;;;;;;;;;;;;;;;12.56;42.76;98320.75;4437475;32;33047;-63
2023/03/10 01:35:04;;;;;;;;;;;;;;;12.59;42.63;98307.84;4448068;32;34282;-63
2023/03/10 01:37:32;;;;;;;;;;;;;;;12.76;42.08;98308.72;4447818;32;34130;-64
2023/03/10 01:40:01;;;;;;;;;;;;;;;12.81;41.72;98306.41;4442898;32;33694;-64
2023/03/10 01:42:28;;;;;;;;;;;;;;;12.61;42.36;98304.97;4443575;32;34117;-64
2023/03/10 01:45:29;;;;;;;;;;;;;;;12.43;42.97;98302.41;4449796;32;35883;-64
2023/03/10 01:47:56;;;;;;;;;;;;;;;12.51;42.99;98298.91;4414711;32;34153;-64
2023/03/10 01:50:24;;;;;;;;;;;;;;;11.84;44.99;98299.56;4435402;32;34352;-64
2023/03/10 01:52:55;;;;;;;;;;;;;;;11.91;44.58;98289.09;4435987;32;32635;-66
2023/03/10 01:55:24;;;;;;;;;;;;;;;11.87;44.62;98283.19;4444712;32;34300;-63
2023/03/10 01:57:52;;;;;;;;;;;;;;;11.35;45.38;98280.44;4443105;32;32800;-63
2023/03/10 02:00:20;;;;;;;;;;;;;;;11.56;45.16;98285.47;4435345;32;32061;-62
2023/03/10 02:02:55;;;;;;;;;;;;;;;11.65;44.65;98272.94;4440351;32;34133;-64
2023/03/10 02:05:22;;;;;;;;;;;;;;;11.68;44.42;98269.13;4443949;32;34036;-64
2023/03/10 02:07:49;;;;;;;;;;;;;;;11.65;44.74;98263.09;4446687;32;35054;-65
2023/03/10 02:10:20;;;;;;;;;;;;;;;11.78;44.76;98273.41;4445113;32;35395;-65
2023/03/10 02:12:50;;;;;;;;;;;;;;;11.69;45.21;98270.81;4440184;32;33604;-65
2023/03/10 02:15:17;;;;;;;;;;;;;;;11.98;44.06;98262.47;4449224;32;34276;-64
2023/03/10 02:17:44;;;;;;;;;;;;;;;11.83;45.20;98268.38;4448587;32;34373;-65
2023/03/10 02:20:12;;;;;;;;;;;;;;;11.88;45.44;98268.78;4443328;32;31997;-65
2023/03/10 02:26:24;;;;;;;;;;;;;;;11.91;44.98;98258.72;4454629;32;35090;-65
2023/03/10 02:28:51;;;;;;;;;;;;;;;11.71;45.39;98253.56;4458959;32;35356;-65
2023/03/10 02:31:19;;;;;;;;;;;;;;;12.05;43.85;98252.78;4455360;32;34663;-66
2023/03/10 02:33:46;;;;;;;;;;;;;;;12.15;43.26;98252.66;4455459;32;34296;-68
2023/03/10 02:36:15;;;;;;;;;;;;;;;11.93;44.10;98249.53;4455069;32;33090;-65
2023/03/10 02:38:43;;;;;;;;;;;;;;;12.09;43.25;98251.47;4451890;32;35246;-68
2023/03/10 02:41:20;;;;;;;;;;;;;;;11.85;43.33;98249.50;4458098;32;33277;-68
2023/03/10 02:43:48;;;;;;;;;;;;;;;11.93;42.69;98243.34;4456935;32;33962;-65
2023/03/10 02:46:20;;;;;;;;;;;;;;;11.79;43.03;98239.38;4449149;32;33996;-67
2023/03/10 02:48:48;;;;;;;;;;;;;;;11.88;42.82;98239.31;4439668;32;34218;-67
2023/03/10 02:51:17;;;;;;;;;;;;;;;11.68;43.67;98232.44;4466718;32;33948;-68
2023/03/10 02:53:44;;;;;;;;;;;;;;;11.70;43.56;98234.97;4456722;32;34202;-67
2023/03/10 02:56:12;;;;;;;;;;;;;;;11.64;43.98;98234.59;4459161;32;33636;-67
2023/03/10 02:58:40;;;;;;;;;;;;;;;11.82;44.06;98229.19;4454524;32;33929;-67
2023/03/10 03:01:08;;;;;;;;;;;;;;;11.94;43.80;98224.41;4464495;32;31551;-66
2023/03/10 03:03:36;;;;;;;;;;;;;;;11.95;43.81;98222.56;4462619;32;33958;-68
2023/03/10 03:06:04;;;;;;;;;;;;;;;11.93;43.95;98213.84;4455225;32;35199;-67
2023/03/10 03:08:32;;;;;;;;;;;;;;;11.95;43.85;98214.53;4462495;32;34135;-67
2023/03/10 03:11:00;;;;;;;;;;;;;;;11.21;46.16;98207.88;4458737;32;33471;-67
2023/03/10 03:13:28;;;;;;;;;;;;;;;11.57;44.75;98204.06;4460081;32;33804;-66
2023/03/10 03:15:55;;;;;;;;;;;;;;;11.60;44.37;98201.06;4452999;32;35370;-69
2023/03/10 03:18:23;;;;;;;;;;;;;;;12.06;43.14;98198.97;4459683;32;34372;-67
2023/03/10 03:20:50;;;;;;;;;;;;;;;12.05;43.10;98199.16;4453296;32;33436;-69
2023/03/10 03:23:18;;;;;;;;;;;;;;;12.01;43.18;98187.09;4459882;32;34166;-66
2023/03/10 03:25:45;;;;;;;;;;;;;;;11.91;43.55;98183.66;4454878;32;34267;-67
2023/03/10 03:28:13;;;;;;;;;;;;;;;11.97;43.04;98183.84;4467335;32;33849;-66
2023/03/10 03:30:41;;;;;;;;;;;;;;;11.91;43.11;98171.13;4456123;32;33574;-66
2023/03/10 03:33:09;;;;;;;;;;;;;;;11.76;43.76;98170.84;4449908;32;34632;-64
2023/03/10 03:35:36;;;;;;;;;;;;;;;11.70;43.59;98174.16;4458387;32;34339;-67
2023/03/10 03:38:04;;;;;;;;;;;;;;;11.63;43.64;98170.44;4467980;32;34014;-67
2023/03/10 03:40:32;;;;;;;;;;;;;;;11.63;43.28;98162.41;4458742;32;33219;-65
2023/03/10 03:43:00;;;;;;;;;;;;;;;11.52;43.39;98158.16;4467540;32;35227;-67
2023/03/10 03:45:28;;;;;;;;;;;;;;;11.49;43.55;98154.94;4459603;32;34141;-65
2023/03/10 03:47:56;;;;;;;;;;;;;;;11.19;44.20;98144.56;4459915;32;33768;-66
2023/03/10 03:50:24;;;;;;;;;;;;;;;11.17;44.20;98149.25;4439381;32;31928;-66
2023/03/10 03:52:52;;;;;;;;;;;;;;;11.31;43.55;98152.34;4465595;32;34862;-67
2023/03/10 03:55:20;;;;;;;;;;;;;;;11.21;43.87;98141.75;4461121;32;33454;-65
2023/03/10 03:57:48;;;;;;;;;;;;;;;11.10;44.33;98133.97;4458865;32;34412;-65
2023/03/10 04:00:17;;;;;;;;;;;;;;;11.24;44.13;98129.88;4435926;32;33388;-65
2023/03/10 04:02:45;;;;;;;;;;;;;;;11.36;43.81;98129.47;4453069;32;33826;-65
2023/03/10 04:05:13;;;;;;;;;;;;;;;11.38;44.04;98134.66;4457769;32;33833;-69
2023/03/10 04:07:41;;;;;;;;;;;;;;;11.19;44.27;98125.81;4464700;32;34815;-65
2023/03/10 04:10:10;;;;;;;;;;;;;;;11.39;43.51;98122.91;4462980;32;34589;-65
2023/03/10 04:12:37;;;;;;;;;;;;;;;11.40;43.40;98117.41;4444264;32;34368;-66
2023/03/10 04:15:07;;;;;;;;;;;;;;;11.47;43.43;98114.09;4457090;32;34129;-66
2023/03/10 04:17:34;;;;;;;;;;;;;;;10.41;48.10;98112.38;4462736;32;34364;-69
2023/03/10 04:20:04;;;;;;;;;;;;;;;11.02;46.78;98112.50;4453952;32;33677;-66
2023/03/10 04:22:35;;;;;;;;;;;;;;;11.25;45.35;98119.00;4452215;32;33052;-69
2023/03/10 04:25:04;;;;;;;;;;;;;;;11.35;44.91;98113.53;4455351;32;33275;-67
2023/03/10 04:27:33;;;;;;;;;;;;;;;11.30;45.21;98116.69;4426490;32;33988;-65
2023/03/10 04:30:01;;;;;;;;;;;;;;;11.52;44.84;98117.97;4454938;32;33247;-66
2023/03/10 04:32:31;;;;;;;;;;;;;;;11.54;44.31;98107.94;4460848;32;35071;-66
2023/03/10 04:34:59;;;;;;;;;;;;;;;11.61;44.23;98108.97;4455279;32;33912;-66
2023/03/10 04:37:27;;;;;;;;;;;;;;;11.65;43.79;98104.97;4467038;32;34176;-68
2023/03/10 04:39:55;;;;;;;;;;;;;;;11.64;43.50;98113.16;4456690;32;33093;-65
2023/03/10 04:42:25;;;;;;;;;;;;;;;11.60;43.85;98104.59;4461334;32;35295;-64
2023/03/10 04:44:53;;;;;;;;;;;;;;;11.64;44.55;98102.44;4467993;32;33948;-64
2023/03/10 04:47:20;;;;;;;;;;;;;;;11.66;44.75;98106.66;4439925;32;34470;-66
2023/03/10 04:49:48;;;;;;;;;;;;;;;11.68;44.68;98106.47;4463132;32;33270;-65
2023/03/10 04:52:15;;;;;;;;;;;;;;;11.81;44.25;98097.97;4456875;32;34434;-63
2023/03/10 04:54:42;;;;;;;;;;;;;;;11.78;43.91;98099.16;4447383;32;35404;-64
2023/03/10 04:57:10;;;;;;;;;;;;;;;11.71;43.72;98087.37;4457160;32;35049;-65
2023/03/10 04:59:39;;;;;;;;;;;;;;;11.49;44.16;98088.81;4465120;32;33443;-64
2023/03/10 05:02:06;;;;;;;;;;;;;;;11.43;44.37;98090.31;4459282;32;33952;-65
2023/03/10 05:04:34;;;;;;;;;;;;;;;11.41;44.29;98083.44;4465164;32;35376;-65
2023/03/10 05:07:02;;;;;;;;;;;;;;;11.41;44.32;98081.59;4453092;32;32475;-65
2023/03/10 05:09:30;;;;;;;;;;;;;;;11.39;44.59;98077.38;4461792;32;33421;-65
2023/03/10 05:11:57;;;;;;;;;;;;;;;11.47;43.82;98072.06;4454338;32;34706;-64
2023/03/10 05:14:27;;;;;;;;;;;;;;;11.49;43.80;98071.91;4453748;32;34906;-66
2023/03/10 05:16:54;;;;;;;;;;;;;;;11.31;45.20;98077.34;4456369;32;34059;-64
2023/03/10 05:19:22;;;;;;;;;;;;;;;11.13;44.94;98078.25;4459223;32;33336;-64
2023/03/10 05:21:50;;;;;;;;;;;;;;;11.16;45.02;98069.91;4458648;32;32821;-64
2023/03/10 05:24:17;;;;;;;;;;;;;;;11.23;45.06;98067.44;4451655;32;35114;-63
2023/03/10 05:26:44;;;;;;;;;;;;;;;10.93;45.44;98074.97;4459741;32;33037;-64
2023/03/10 05:29:12;;;;;;;;;;;;;;;11.00;45.14;98067.13;4466332;32;32616;-65
2023/03/10 05:31:40;;;;;;;;;;;;;;;10.93;45.69;98063.41;4454780;32;35491;-64
2023/03/10 05:34:07;;;;;;;;;;;;;;;11.02;45.67;98061.62;4467315;32;35503;-65
2023/03/10 05:36:35;;;;;;;;;;;;;;;11.17;45.28;98052.84;4455281;32;35078;-65
2023/03/10 05:39:04;;;;;;;;;;;;;;;11.04;45.81;98044.41;4453886;32;33219;-63
2023/03/10 05:41:32;;;;;;;;;;;;;;;11.15;45.67;98046.81;4454717;32;34560;-65
2023/03/10 05:44:00;;;;;;;;;;;;;;;11.42;44.83;98039.56;4456548;32;35513;-63
2023/03/10 05:46:28;;;;;;;;;;;;;;;11.48;45.15;98044.28;4456202;32;34293;-64
2023/03/10 05:48:56;;;;;;;;;;;;;;;11.62;44.77;98046.34;4455593;32;31798;-65
2023/03/10 05:51:24;;;;;;;;;;;;;;;11.68;44.58;98042.16;4457074;32;35689;-65
2023/03/10 05:53:51;;;;;;;;;;;;;;;11.80;44.48;98037.34;4466823;32;32872;-64
2023/03/10 05:56:19;;;;;;;;;;;;;;;11.95;44.37;98034.91;4464883;32;34900;-64
2023/03/10 05:58:47;;;;;;;;;;;;;;;11.98;44.22;98032.72;4458871;32;33374;-65
2023/03/10 06:01:15;;;;;;;;;;;;;;;11.87;44.63;98030.34;4437166;32;34243;-64
2023/03/10 06:03:43;;;;;;;;;;;;;;;12.01;44.82;98029.72;4450818;32;32822;-64
2023/03/10 06:06:11;;;;;;;;;;;;;;;12.15;44.58;98028.22;4455313;32;34237;-63
2023/03/10 06:08:38;;;;;;;;;;;;;;;12.18;44.77;98014.47;4451598;32;33022;-63
2023/03/10 06:11:06;;;;;;;;;;;;;;;12.42;44.30;98007.41;4455472;32;33700;-63
2023/03/10 06:13:33;;;;;;;;;;;;;;;12.61;44.09;98015.09;4438930;32;34415;-65
2023/03/10 06:16:01;;;;;;;;;;;;;;;12.50;44.59;98023.53;4453152;32;33895;-64
2023/03/10 06:18:28;;;;;;;;;;;;;;;12.89;44.15;98026.31;4456217;32;33219;-64
2023/03/10 06:20:56;;;;;;;;;;;;;;;13.01;44.40;98022.25;4465605;32;34128;-64
2023/03/10 06:23:23;;;;;;;;;;;;;;;13.32;44.29;98021.50;4466115;32;34335;-65
2023/03/10 06:25:55;;;;;;;;;;;;;;;14.65;41.32;98016.78;4457434;32;33548;-65
2023/03/10 06:28:22;;;;;;;;;;;;;;;15.26;39.96;98016.66;4465747;32;32578;-65
2023/03/10 06:30:53;;;;;;;;;;;;;;;15.24;40.04;98010.59;4467447;32;33811;-65
2023/03/10 06:33:20;;;;;;;;;;;;;;;15.03;40.66;98007.84;4455405;32;34267;-63
2023/03/10 06:35:47;;;;;;;;;;;;;;;14.71;42.14;98007.16;4452256;32;33951;-67
2023/03/10 06:38:14;;;;;;;;;;;;;;;14.50;42.69;98007.81;4457946;32;32279;-66
2023/03/10 06:40:42;;;;;;;;;;;;;;;14.63;42.31;97999.97;4458772;32;33997;-67
2023/03/10 06:43:09;;;;;;;;;;;;;;;14.52;42.66;98005.81;4455639;32;32817;-66
2023/03/10 06:45:36;;;;;;;;;;;;;;;14.58;42.64;98004.25;4451633;32;33735;-66
2023/03/10 06:48:04;;;;;;;;;;;;;;;14.76;42.51;98006.59;4446981;32;33357;-66
2023/03/10 06:50:31;;;;;;;;;;;;;;;14.84;42.94;98007.34;4460293;32;34434;-66
2023/03/10 06:52:58;;;;;;;;;;;;;;;14.90;43.53;98000.41;4451563;32;34212;-67
2023/03/10 06:55:26;;;;;;;;;;;;;;;15.03;43.84;98000.59;4438958;32;35351;-67
2023/03/10 06:57:53;;;;;;;;;;;;;;;15.31;43.70;97994.53;4459466;32;32670;-66
2023/03/10 07:00:20;;;;;;;;;;;;;;;14.80;44.60;97999.81;4453348;32;34812;-66
2023/03/10 07:02:48;;;;;;;;;;;;;;;14.91;44.67;98004.75;4452443;32;34260;-65
2023/03/10 07:05:15;;;;;;;;;;;;;;;14.75;44.77;98004.94;4456534;32;33721;-66
2023/03/10 07:07:42;;;;;;;;;;;;;;;14.70;45.39;98002.75;4454639;32;34390;-67
2023/03/10 07:10:10;;;;;;;;;;;;;;;14.61;46.80;97999.34;4451415;32;34893;-65
2023/03/10 07:12:37;;;;;;;;;;;;;;;15.10;45.83;97995.28;4451308;32;35383;-66
2023/03/10 07:15:04;;;;;;;;;;;;;;;14.94;46.09;98001.69;4457616;32;34868;-66
2023/03/10 07:17:32;;;;;;;;;;;;;;;15.33;45.65;97997.88;4454765;32;33611;-66
2023/03/10 07:19:59;;;;;;;;;;;;;;;15.45;45.41;97998.25;4459676;32;32880;-66
2023/03/10 07:22:26;;;;;;;;;;;;;;;15.92;44.53;97989.69;4456254;32;34411;-67
2023/03/10 07:24:54;;;;;;;;;;;;;;;15.81;45.27;97991.03;4451287;32;34071;-65
2023/03/10 07:27:21;;;;;;;;;;;;;;;16.29;44.18;97993.16;4450886;32;33543;-66
2023/03/10 07:29:49;;;;;;;;;;;;;;;16.02;44.40;97992.09;4466147;32;34026;-65
2023/03/10 07:32:16;;;;;;;;;;;;;;;16.29;43.87;97994.00;4459856;32;34206;-67
2023/03/10 07:34:43;;;;;;;;;;;;;;;16.12;44.65;97998.00;4456992;32;34002;-68
2023/03/10 07:37:11;;;;;;;;;;;;;;;16.68;43.54;97992.66;4466738;32;34461;-65
2023/03/10 07:39:38;;;;;;;;;;;;;;;16.83;43.46;97997.16;4454228;32;32885;-66
2023/03/10 07:42:05;;;;;;;;;;;;;;;17.16;42.97;97987.38;4456548;32;35457;-67
2023/03/10 07:44:33;;;;;;;;;;;;;;;17.34;42.54;97984.16;4451551;32;34551;-66
2023/03/10 07:47:00;;;;;;;;;;;;;;;17.06;42.96;97981.50;4459265;32;33206;-68
2023/03/10 07:49:27;;;;;;;;;;;;;;;16.52;44.72;97977.56;4467757;32;33739;-66
2023/03/10 07:51:54;;;;;;;;;;;;;;;16.66;44.67;97978.53;4459484;32;32989;-66
2023/03/10 07:54:22;;;;;;;;;;;;;;;16.67;44.85;97972.09;4454338;32;33124;-67
2023/03/10 07:56:49;;;;;;;;;;;;;;;16.57;45.36;97968.06;4453542;32;31825;-66
2023/03/10 07:59:17;;;;;;;;;;;;;;;16.20;46.10;97961.94;4468367;32;32985;-66
2023/03/10 08:01:44;;;;;;;;;;;;;;;16.53;45.51;97957.66;4461638;32;34355;-68
2023/03/10 08:04:13;;;;;;;;;;;;;;;16.68;45.70;97962.94;4451913;32;33847;-67
2023/03/10 08:06:40;;;;;;;;;;;;;;;16.80;45.40;97957.03;4453555;32;34801;-68
2023/03/10 08:09:07;;;;;;;;;;;;;;;17.07;45.00;97956.16;4458724;32;35223;-67
2023/03/10 08:11:35;;;;;;;;;;;;;;;16.23;47.34;97966.94;4456793;32;34302;-66
2023/03/10 08:14:03;;;;;;;;;;;;;;;15.93;48.09;97958.16;4455218;32;34408;-67
2023/03/10 08:16:30;;;;;;;;;;;;;;;16.34;47.27;97952.06;4463603;32;33742;-67
2023/03/10 08:18:57;;;;;;;;;;;;;;;16.30;47.10;97938.97;4454334;32;35272;-68
2023/03/10 08:21:25;;;;;;;;;;;;;;;15.96;48.25;97934.31;4466849;32;33809;-68
2023/03/10 08:23:52;;;;;;;;;;;;;;;15.10;50.40;97939.53;4457344;32;34099;-67
2023/03/10 08:26:19;;;;;;;;;;;;;;;15.89;48.96;97938.81;4440221;32;33565;-68
2023/03/10 08:28:46;;;;;;;;;;;;;;;15.67;49.25;97932.56;4467813;32;34153;-66
2023/03/10 08:31:15;;;;;;;;;;;;;;;16.79;46.85;97931.91;4469760;32;34301;-67
2023/03/10 08:33:43;;;;;;;;;;;;;;;16.37;47.77;97930.09;4457579;32;34886;-67
2023/03/10 08:36:12;;;;;;;;;;;;;;;16.69;46.48;97920.53;4468260;32;33317;-68
2023/03/10 08:38:39;;;;;;;;;;;;;;;15.86;48.22;97914.06;4458817;32;34155;-67
2023/03/10 08:41:11;;;;;;;;;;;;;;;15.84;48.44;97915.09;4453585;32;34302;-67
2023/03/10 08:43:38;;;;;;;;;;;;;;;16.59;46.98;97912.81;4452541;32;32951;-66
2023/03/10 08:46:06;;;;;;;;;;;;;;;16.67;46.77;97901.84;4452700;32;32752;-67
2023/03/10 08:48:35;;;;;;;;;;;;;;;16.40;46.84;97911.63;4452031;32;35128;-68
2023/03/10 08:51:02;;;;;;;;;;;;;;;16.50;46.76;97909.44;4453189;32;34092;-66
2023/03/10 08:53:31;;;;;;;;;;;;;;;16.83;46.72;97908.00;4454164;32;34134;-66
2023/03/10 08:55:58;;;;;;;;;;;;;;;16.53;46.51;97898.25;4466519;32;32939;-68
2023/03/10 08:58:26;;;;;;;;;;;;;;;15.91;48.51;97898.97;4457827;32;35151;-67
2023/03/10 09:00:53;;;;;;;;;;;;;;;17.77;44.70;97893.81;4437252;32;35465;-67
2023/03/10 09:03:21;;;;;;;;;;;;;;;17.99;43.81;97894.47;4460915;32;34511;-67
2023/03/10 09:05:48;;;;;;;;;;;;;;;17.50;44.49;97895.63;4455789;32;33742;-67
2023/03/10 09:08:15;;;;;;;;;;;;;;;18.31;43.11;97884.69;4451678;32;32525;-67
2023/03/10 09:10:43;;;;;;;;;;;;;;;17.93;43.65;97888.00;4455488;32;35159;-67
2023/03/10 09:13:10;;;;;;;;;;;;;;;17.31;45.34;97889.94;4461806;32;34169;-67
2023/03/10 09:15:40;;;;;;;;;;;;;;;17.46;44.78;97889.75;4432023;32;817455;-66
2023/03/10 09:18:08;;;;;;;;;;;;;;;17.44;45.08;97889.13;4454719;32;34142;-66
2023/03/10 09:20:36;;;;;;;;;;;;;;;18.09;44.00;97889.47;4466649;32;33458;-68
2023/03/10 09:23:03;;;;;;;;;;;;;;;18.01;43.81;97879.69;4452135;32;34954;-67
2023/03/10 09:25:31;;;;;;;;;;;;;;;18.36;42.63;97874.91;4452648;32;33049;-67
2023/03/10 09:27:58;;;;;;;;;;;;;;;18.87;42.31;97869.81;4451117;32;34906;-67
2023/03/10 09:30:25;;;;;;;;;;;;;;;17.89;44.00;97865.94;4452539;32;33771;-67
2023/03/10 09:32:53;;;;;;;;;;;;;;;18.22;43.55;97862.41;4438322;32;35123;-67
2023/03/10 09:35:22;;;;;;;;;;;;;;;19.17;42.14;97851.97;4455500;32;33424;-66
2023/03/10 09:37:49;;;;;;;;;;;;;;;17.50;45.36;97846.94;4459624;32;35029;-67
2023/03/10 09:40:17;;;;;;;;;;;;;;;17.90;45.11;97851.34;4454017;32;34292;-66
2023/03/10 09:42:45;;;;;;;;;;;;;;;15.98;49.71;97854.00;4458124;32;34200;-65
2023/03/10 09:45:26;;;;;;;;;;;;;;;16.69;48.49;97834.97;4447999;32;32974;-66
2023/03/10 09:47:53;;;;;;;;;;;;;;;17.37;47.18;97837.75;4439140;32;34221;-67
2023/03/10 09:50:20;;;;;;;;;;;;;;;17.44;46.81;97833.19;4464019;32;34323;-66
2023/03/10 09:53:06;;;;;;;;;;;;;;;16.98;47.89;97835.72;4462662;32;34918;-67
2023/03/10 09:55:36;;;;;;;;;;;;;;;17.45;47.29;97837.53;4452687;32;33352;-67
2023/03/10 09:58:16;;;;;;;;;;;;;;;18.03;46.27;97834.28;4446522;32;32743;-66
2023/03/10 10:00:43;;;;;;;;;;;;;;;17.48;47.26;97830.88;4444333;32;35415;-66
2023/03/10 10:03:11;;;;;;;;;;;;;;;17.29;48.21;97820.87;4460035;32;34284;-66
2023/03/10 10:05:38;;;;;;;;;;;;;;;17.15;48.45;97820.00;4460300;32;34249;-67
2023/03/10 10:08:10;;;;;;;;;;;;;;;18.02;47.14;97821.81;4455198;32;34105;-66
2023/03/10 10:10:38;;;;;;;;;;;;;;;18.15;46.48;97812.84;4439140;32;33829;-67
2023/03/10 10:13:12;;;;;;;;;;;;;;;18.59;45.61;97808.59;4458181;32;35261;-66
2023/03/10 10:15:46;;;;;;;;;;;;;;;19.06;44.98;97814.69;4453136;32;33643;-66
2023/03/10 10:18:14;;;;;;;;;;;;;;;18.92;45.17;97805.78;4448893;32;34278;-68
2023/03/10 10:20:57;;;;;;;;;;;;;;;18.57;46.35;97799.84;4441532;32;34044;-66
2023/03/10 10:23:28;;;;;;;;;;;;;;;18.84;45.65;97790.59;4446090;32;35240;-67
2023/03/10 10:25:57;;;;;;;;;;;;;;;17.99;47.91;97786.22;4456257;32;33437;-67
2023/03/10 10:28:43;;;;;;;;;;;;;;;18.52;46.65;97775.25;4446121;32;34957;-67
2023/03/10 10:31:15;;;;;;;;;;;;;;;18.65;46.09;97766.25;4444607;32;34258;-66
2023/03/10 10:33:59;;;;;;;;;;;;;;;19.83;43.97;97760.34;4452080;32;33687;-67
2023/03/10 10:36:28;;;;;;;;;;;;;;;19.01;44.16;97766.53;4456849;32;33326;-68
2023/03/10 10:38:55;;;;;;;;;;;;;;;19.64;43.44;97760.28;4444451;32;35193;-67
2023/03/10 10:41:23;;;;;;;;;;;;;;;20.37;41.63;97754.19;4446493;32;33089;-68
2023/03/10 10:43:52;;;;;;;;;;;;;;;19.72;41.00;97754.59;4453236;32;34527;-69
2023/03/10 10:46:24;;;;;;;;;;;;;;;19.18;41.99;97755.19;4451895;32;33958;-67
2023/03/10 10:49:02;;;;;;;;;;;;;;;18.23;44.17;97761.16;4450796;32;34097;-68
2023/03/10 10:51:31;;;;;;;;;;;;;;;18.69;42.92;97746.66;4454379;32;33436;-69
2023/03/10 10:53:59;;;;;;;;;;;;;;;18.71;43.35;97743.72;4457589;32;34423;-68
2023/03/10 10:56:27;;;;;;;;;;;;;;;19.11;42.51;97738.97;4441031;32;33172;-69
2023/03/10 10:59:02;;;;;;;;;;;;;;;18.75;43.64;97726.84;4446015;32;34480;-68
2023/03/10 11:01:50;;;;;;;;;;;;;;;18.57;43.84;97727.50;4449178;32;34167;-68
2023/03/10 11:04:17;;;;;;;;;;;;;;;18.57;43.76;97729.41;4453715;32;34437;-67
2023/03/10 11:06:45;;;;;;;;;;;;;;;18.93;43.70;97719.88;4455042;32;33436;-69
2023/03/10 11:09:12;;;;;;;;;;;;;;;19.03;42.91;97714.78;4458509;32;34959;-69
2023/03/10 11:11:45;;;;;;;;;;;;;;;19.59;41.74;97700.41;4462543;32;34334;-69
2023/03/10 11:14:12;;;;;;;;;;;;;;;19.73;41.46;97688.41;4459324;32;33864;-68
2023/03/10 11:16:52;;;;;;;;;;;;;;;19.03;43.06;97701.25;4462014;32;31415;-68
2023/03/10 11:19:23;;;;;;;;;;;;;;;18.88;43.25;97693.44;4446829;32;35677;-68
2023/03/10 11:21:51;;;;;;;;;;;;;;;18.52;43.71;97681.28;4464835;32;35507;-68
2023/03/10 11:24:25;;;;;;;;;;;;;;;19.30;42.18;97683.75;4451681;32;32462;-67
2023/03/10 11:26:55;;;;;;;;;;;;;;;18.99;43.07;97678.34;4444647;32;32030;-68
2023/03/10 11:29:31;;;;;;;;;;;;;;;19.05;43.37;97683.72;4456946;32;32720;-67
2023/03/10 11:32:13;;;;;;;;;;;;;;;19.64;41.31;97664.50;4455366;32;34381;-66
2023/03/10 11:34:52;;;;;;;;;;;;;;;19.53;41.17;97656.00;4449867;32;34525;-67
2023/03/10 11:37:24;;;;;;;;;;;;;;;19.12;41.92;97650.31;4456845;32;32861;-67
2023/03/10 11:40:10;;;;;;;;;;;;;;;18.71;42.85;97657.00;4443237;32;34127;-68
2023/03/10 11:42:56;;;;;;;;;;;;;;;18.69;43.57;97648.28;4464373;32;35570;-67
2023/03/10 11:45:28;;;;;;;;;;;;;;;18.79;42.90;97646.78;4458332;32;35237;-67
2023/03/10 11:48:16;;;;;;;;;;;;;;;18.44;43.63;97642.78;4446528;32;33448;-68
2023/03/10 11:50:53;;;;;;;;;;;;;;;18.53;44.21;97636.06;4459879;32;33977;-67
2023/03/10 11:53:29;;;;;;;;;;;;;;;18.62;44.37;97615.81;4451754;32;34782;-66
2023/03/10 11:55:57;;;;;;;;;;;;;;;18.78;43.63;97615.31;4444409;32;34902;-66
2023/03/10 11:58:35;;;;;;;;;;;;;;;18.43;44.56;97617.56;4440307;32;33851;-68
2023/03/10 12:01:03;;;;;;;;;;;;;;;18.94;42.98;97602.25;4437221;32;34087;-70
2023/03/10 12:03:36;;;;;;;;;;;;;;;18.27;44.59;97607.25;4452249;32;35068;-67
2023/03/10 12:06:03;;;;;;;;;;;;;;;19.20;42.46;97593.94;4458620;32;33550;-67
2023/03/10 12:08:32;;;;;;;;;;;;;;;18.50;44.22;97590.44;4446719;32;33018;-66
2023/03/10 12:11:00;;;;;;;;;;;;;;;19.04;43.62;97584.47;4443212;32;34126;-67
2023/03/10 12:13:29;;;;;;;;;;;;;;;19.70;41.97;97572.16;4463103;32;35384;-67
2023/03/10 12:15:58;;;;;;;;;;;;;;;18.88;43.33;97574.19;4444630;32;34990;-67
2023/03/10 12:18:26;;;;;;;;;;;;;;;18.71;44.28;97563.00;4442382;32;33162;-69
2023/03/10 12:21:12;;;;;;;;;;;;;;;18.35;45.32;97567.19;4443489;32;35448;-67
2023/03/10 12:23:43;;;;;;;;;;;;;;;18.84;43.86;97560.25;4456843;32;35485;-67
2023/03/10 12:26:10;;;;;;;;;;;;;;;18.30;44.97;97558.06;4458684;32;33988;-68
2023/03/10 12:28:38;;;;;;;;;;;;;;;18.01;45.68;97557.59;4460927;32;32345;-67
2023/03/10 12:31:09;;;;;;;;;;;;;;;18.27;45.59;97542.25;4445505;32;33973;-67
2023/03/10 12:33:41;;;;;;;;;;;;;;;17.88;45.90;97544.97;4463076;32;33834;-66
2023/03/10 12:36:14;;;;;;;;;;;;;;;18.15;45.44;97540.22;4462024;32;33943;-67
2023/03/10 12:38:58;;;;;;;;;;;;;;;17.76;46.90;97533.09;4465351;32;33084;-67
2023/03/10 12:41:25;;;;;;;;;;;;;;;17.70;47.12;97532.09;4445414;32;34174;-68
2023/03/10 12:44:11;;;;;;;;;;;;;;;17.41;47.43;97535.31;4455608;32;34363;-67
2023/03/10 12:46:47;;;;;;;;;;;;;;;17.84;46.99;97529.34;4457295;32;34901;-68
2023/03/10 12:49:21;;;;;;;;;;;;;;;17.90;46.48;97520.38;4462610;32;33300;-68
2023/03/10 12:51:57;;;;;;;;;;;;;;;17.65;47.01;97518.34;4459038;32;34171;-70
2023/03/10 12:54:43;;;;;;;;;;;;;;;18.02;46.59;97507.00;4460188;32;33118;-68
2023/03/10 12:57:10;;;;;;;;;;;;;;;17.76;47.78;97502.53;4456601;32;32724;-67
2023/03/10 12:59:39;;;;;;;;;;;;;;;18.12;47.04;97497.34;4443568;32;33229;-67
2023/03/10 13:02:16;;;;;;;;;;;;;;;18.06;46.85;97503.63;4465649;32;33781;-67